sensor_id;sensor_type;location;lat;lon;timestamp;pressure;altitude;pressure_sealevel;temperature;humidity
51287;BME280;37364;46.974;18.916;2023-05-09T00:01:48;152155.00;;;7.17;100.00
51287;BME280;37364;46.974;18.916;2023-05-09T00:04:18;152144.66;;;7.13;100.00
51287;BME280;37364;46.974;18.916;2023-05-09T00:06:48;152138.22;;;7.10;100.00
51287;BME280;37364;46.974;18.916;2023-05-09T00:09:21;152136.94;;;7.10;100.00
51287;BME280;37364;46.974;18.916;2023-05-09T00:11:51;152135.63;;;7.09;100.00
51287;BME280;37364;46.974;18.916;2023-05-09T00:14:21;152136.94;;;7.10;100.00
51287;BME280;37364;46.974;18.916;2023-05-09T00:16:54;152158.88;;;7.19;100.00
51287;BME280;37364;46.974;18.916;2023-05-09T00:19:25;152164.03;;;7.21;100.00
51287;BME280;37364;46.974;18.916;2023-05-09T00:21:55;152146.00;;;7.13;100.00
51287;BME280;37364;46.974;18.916;2023-05-09T00:24:25;152157.59;;;7.18;100.00
51287;BME280;37364;46.974;18.916;2023-05-09T00:26:55;152136.94;;;7.10;100.00
51287;BME280;37364;46.974;18.916;2023-05-09T00:29:26;152135.63;;;7.09;100.00
51287;BME280;37364;46.974;18.916;2023-05-09T00:31:58;152121.47;;;7.04;100.00
51287;BME280;37364;46.974;18.916;2023-05-09T00:34:28;152173.09;;;7.24;100.00
51287;BME280;37364;46.974;18.916;2023-05-09T00:36:59;152138.22;;;7.10;100.00
51287;BME280;37364;46.974;18.916;2023-05-09T00:39:29;152143.38;;;7.12;100.00
51287;BME280;37364;46.974;18.916;2023-05-09T00:41:59;152134.34;;;7.09;100.00
51287;BME280;37364;46.974;18.916;2023-05-09T00:44:30;152122.72;;;7.04;100.00
51287;BME280;37364;46.974;18.916;2023-05-09T00:47:02;152113.69;;;7.01;100.00
51287;BME280;37364;46.974;18.916;2023-05-09T00:49:33;152089.16;;;6.91;100.00
51287;BME280;37364;46.974;18.916;2023-05-09T00:52:04;152094.31;;;6.93;100.00
51287;BME280;37364;46.974;18.916;2023-05-09T00:54:34;152067.22;;;6.82;100.00
51287;BME280;37364;46.974;18.916;2023-05-09T00:57:04;152078.81;;;6.87;100.00
51287;BME280;37364;46.974;18.916;2023-05-09T00:59:35;152065.91;;;6.82;100.00
51287;BME280;37364;46.974;18.916;2023-05-09T01:02:08;152072.38;;;6.84;100.00
51287;BME280;37364;46.974;18.916;2023-05-09T01:04:38;152078.81;;;6.87;100.00
51287;BME280;37364;46.974;18.916;2023-05-09T01:07:13;152071.06;;;6.84;100.00
51287;BME280;37364;46.974;18.916;2023-05-09T01:09:53;152059.44;;;6.79;100.00
51287;BME280;37364;46.974;18.916;2023-05-09T01:12:31;152043.97;;;6.73;100.00
51287;BME280;37364;46.974;18.916;2023-05-09T01:15:09;152050.41;;;6.76;100.00
51287;BME280;37364;46.974;18.916;2023-05-09T01:17:54;152069.78;;;6.83;100.00
51287;BME280;37364;46.974;18.916;2023-05-09T01:20:31;152058.19;;;6.79;100.00
51287;BME280;37364;46.974;18.916;2023-05-09T01:23:14;152042.69;;;6.72;100.00
51287;BME280;37364;46.974;18.916;2023-05-09T01:25:59;152068.50;;;6.83;100.00
51287;BME280;37364;46.974;18.916;2023-05-09T01:28:45;152031.03;;;6.68;100.00
51287;BME280;37364;46.974;18.916;2023-05-09T01:31:27;152073.66;;;6.85;100.00
51287;BME280;37364;46.974;18.916;2023-05-09T01:33:58;152049.13;;;6.75;100.00
51287;BME280;37364;46.974;18.916;2023-05-09T01:36:31;152040.09;;;6.71;100.00
51287;BME280;37364;46.974;18.916;2023-05-09T01:39:05;152029.75;;;6.67;100.00
51287;BME280;37364;46.974;18.916;2023-05-09T01:41:36;152036.19;;;6.70;100.00
51287;BME280;37364;46.974;18.916;2023-05-09T01:44:09;152015.56;;;6.62;100.00
51287;BME280;37364;46.974;18.916;2023-05-09T01:46:43;152050.41;;;6.76;100.00
51287;BME280;37364;46.974;18.916;2023-05-09T01:49:14;152049.13;;;6.75;100.00
51287;BME280;37364;46.974;18.916;2023-05-09T01:51:47;152025.88;;;6.66;100.00
51287;BME280;37364;46.974;18.916;2023-05-09T01:54:17;152019.44;;;6.63;100.00
51287;BME280;37364;46.974;18.916;2023-05-09T01:56:49;152015.56;;;6.62;100.00
51287;BME280;37364;46.974;18.916;2023-05-09T01:59:20;152036.19;;;6.70;100.00
51287;BME280;37364;46.974;18.916;2023-05-09T02:01:55;152027.16;;;6.66;100.00
51287;BME280;37364;46.974;18.916;2023-05-09T02:04:26;152047.84;;;6.75;100.00
51287;BME280;37364;46.974;18.916;2023-05-09T02:06:58;152050.41;;;6.76;100.00
51287;BME280;37364;46.974;18.916;2023-05-09T02:09:29;152063.34;;;6.81;100.00
51287;BME280;37364;46.974;18.916;2023-05-09T02:12:00;152051.69;;;6.76;100.00
51287;BME280;37364;46.974;18.916;2023-05-09T02:14:31;152042.69;;;6.72;100.00
51287;BME280;37364;46.974;18.916;2023-05-09T02:17:03;152056.84;;;6.78;100.00
51287;BME280;37364;46.974;18.916;2023-05-09T02:19:35;152065.91;;;6.82;100.00
51287;BME280;37364;46.974;18.916;2023-05-09T02:22:05;152069.78;;;6.83;100.00
51287;BME280;37364;46.974;18.916;2023-05-09T02:24:36;152093.03;;;6.92;100.00
51287;BME280;37364;46.974;18.916;2023-05-09T02:27:07;152118.84;;;7.03;100.00
51287;BME280;37364;46.974;18.916;2023-05-09T02:29:41;152113.69;;;7.01;100.00
51287;BME280;37364;46.974;18.916;2023-05-09T02:32:18;152094.31;;;6.93;100.00
51287;BME280;37364;46.974;18.916;2023-05-09T02:34:52;152107.25;;;6.98;100.00
51287;BME280;37364;46.974;18.916;2023-05-09T02:37:23;152076.22;;;6.86;100.00
51287;BME280;37364;46.974;18.916;2023-05-09T02:39:54;152085.28;;;6.89;100.00
51287;BME280;37364;46.974;18.916;2023-05-09T02:42:26;152071.06;;;6.84;100.00
51287;BME280;37364;46.974;18.916;2023-05-09T02:44:56;152084.00;;;6.89;100.00
51287;BME280;37364;46.974;18.916;2023-05-09T02:47:29;152076.22;;;6.86;100.00
51287;BME280;37364;46.974;18.916;2023-05-09T02:50:00;152080.09;;;6.87;100.00
51287;BME280;37364;46.974;18.916;2023-05-09T02:52:31;152064.63;;;6.81;100.00
51287;BME280;37364;46.974;18.916;2023-05-09T02:55:02;152058.19;;;6.79;100.00
51287;BME280;37364;46.974;18.916;2023-05-09T02:57:37;152046.53;;;6.74;100.00
51287;BME280;37364;46.974;18.916;2023-05-09T03:00:08;152074.94;;;6.85;100.00
51287;BME280;37364;46.974;18.916;2023-05-09T03:02:41;152074.94;;;6.85;100.00
51287;BME280;37364;46.974;18.916;2023-05-09T03:05:15;152047.84;;;6.75;100.00
51287;BME280;37364;46.974;18.916;2023-05-09T03:07:46;152049.13;;;6.75;100.00
51287;BME280;37364;46.974;18.916;2023-05-09T03:10:17;152047.84;;;6.75;100.00
51287;BME280;37364;46.974;18.916;2023-05-09T03:12:47;152046.53;;;6.74;100.00
51287;BME280;37364;46.974;18.916;2023-05-09T03:15:18;152032.38;;;6.68;100.00
51287;BME280;37364;46.974;18.916;2023-05-09T03:17:52;152045.25;;;6.73;100.00
51287;BME280;37364;46.974;18.916;2023-05-09T03:20:22;152059.44;;;6.79;100.00
51287;BME280;37364;46.974;18.916;2023-05-09T03:22:52;152040.09;;;6.71;100.00
51287;BME280;37364;46.974;18.916;2023-05-09T03:25:23;152029.75;;;6.67;100.00
51287;BME280;37364;46.974;18.916;2023-05-09T03:27:53;152034.91;;;6.69;100.00
51287;BME280;37364;46.974;18.916;2023-05-09T03:30:23;152011.66;;;6.60;100.00
51287;BME280;37364;46.974;18.916;2023-05-09T03:32:58;152003.94;;;6.57;100.00
51287;BME280;37364;46.974;18.916;2023-05-09T03:35:28;152015.56;;;6.62;100.00
51287;BME280;37364;46.974;18.916;2023-05-09T03:37:58;152025.88;;;6.66;100.00
51287;BME280;37364;46.974;18.916;2023-05-09T03:40:28;152027.16;;;6.66;100.00
51287;BME280;37364;46.974;18.916;2023-05-09T03:43:05;152022.00;;;6.64;100.00
51287;BME280;37364;46.974;18.916;2023-05-09T03:45:36;152022.00;;;6.64;100.00
51287;BME280;37364;46.974;18.916;2023-05-09T03:48:11;152045.25;;;6.73;100.00
51287;BME280;37364;46.974;18.916;2023-05-09T03:50:47;152045.25;;;6.73;100.00
51287;BME280;37364;46.974;18.916;2023-05-09T03:53:18;152041.38;;;6.72;100.00
51287;BME280;37364;46.974;18.916;2023-05-09T03:55:51;152060.72;;;6.80;100.00
51287;BME280;37364;46.974;18.916;2023-05-09T03:58:22;152038.81;;;6.71;100.00
51287;BME280;37364;46.974;18.916;2023-05-09T04:00:52;152036.19;;;6.70;100.00
51287;BME280;37364;46.974;18.916;2023-05-09T04:03:27;152055.56;;;6.78;100.00
51287;BME280;37364;46.974;18.916;2023-05-09T04:05:58;152065.91;;;6.82;100.00
51287;BME280;37364;46.974;18.916;2023-05-09T04:08:35;152081.38;;;6.88;100.00
51287;BME280;37364;46.974;18.916;2023-05-09T04:11:06;152068.50;;;6.83;100.00
51287;BME280;37364;46.974;18.916;2023-05-09T04:13:39;152082.72;;;6.88;100.00
51287;BME280;37364;46.974;18.916;2023-05-09T04:16:29;152087.88;;;6.90;100.00
51287;BME280;37364;46.974;18.916;2023-05-09T04:19:02;152107.25;;;6.98;100.00
51287;BME280;37364;46.974;18.916;2023-05-09T04:21:34;152127.91;;;7.06;100.00
51287;BME280;37364;46.974;18.916;2023-05-09T04:24:06;152142.09;;;7.12;100.00
51287;BME280;37364;46.974;18.916;2023-05-09T04:26:45;152164.03;;;7.21;100.00
51287;BME280;37364;46.974;18.916;2023-05-09T04:29:20;152170.53;;;7.23;100.00
51287;BME280;37364;46.974;18.916;2023-05-09T04:31:53;152206.69;;;7.38;100.00
51287;BME280;37364;46.974;18.916;2023-05-09T04:34:28;152218.28;;;7.42;100.00
51287;BME280;37364;46.974;18.916;2023-05-09T04:37:05;152223.47;;;7.44;100.00
51287;BME280;37364;46.974;18.916;2023-05-09T04:39:36;152255.78;;;7.57;100.00
51287;BME280;37364;46.974;18.916;2023-05-09T04:42:14;152248.00;;;7.54;100.00
51287;BME280;37364;46.974;18.916;2023-05-09T04:44:45;152244.13;;;7.52;100.00
51287;BME280;37364;46.974;18.916;2023-05-09T04:47:15;152294.53;;;7.72;100.00
51287;BME280;37364;46.974;18.916;2023-05-09T04:49:49;152335.88;;;7.89;100.00
51287;BME280;37364;46.974;18.916;2023-05-09T04:52:19;152365.59;;;8.01;100.00
51287;BME280;37364;46.974;18.916;2023-05-09T04:54:49;152348.81;;;7.94;100.00
51287;BME280;37364;46.974;18.916;2023-05-09T04:57:21;152337.16;;;7.89;100.00
51287;BME280;37364;46.974;18.916;2023-05-09T04:59:55;152353.97;;;7.96;100.00
51287;BME280;37364;46.974;18.916;2023-05-09T05:02:25;152395.31;;;8.12;100.00
51287;BME280;37364;46.974;18.916;2023-05-09T05:04:58;152441.81;;;8.31;100.00
51287;BME280;37364;46.974;18.916;2023-05-09T05:07:40;152488.44;;;8.49;100.00
51287;BME280;37364;46.974;18.916;2023-05-09T05:10:16;152516.91;;;8.61;100.00
51287;BME280;37364;46.974;18.916;2023-05-09T05:12:52;152493.63;;;8.51;100.00
51287;BME280;37364;46.974;18.916;2023-05-09T05:15:23;152456.06;;;8.37;100.00
51287;BME280;37364;46.974;18.916;2023-05-09T05:17:54;152465.13;;;8.40;100.00
51287;BME280;37364;46.974;18.916;2023-05-09T05:20:31;152447.03;;;8.33;100.00
51287;BME280;37364;46.974;18.916;2023-05-09T05:23:01;152497.50;;;8.53;100.00
51287;BME280;37364;46.974;18.916;2023-05-09T05:25:32;152528.50;;;8.65;100.00
51287;BME280;37364;46.974;18.916;2023-05-09T05:28:02;152580.22;;;8.86;100.00
51287;BME280;37364;46.974;18.916;2023-05-09T05:30:32;152566.03;;;8.80;100.00
51287;BME280;37364;46.974;18.916;2023-05-09T05:33:03;152647.47;;;9.13;100.00
51287;BME280;37364;46.974;18.916;2023-05-09T05:35:36;152612.56;;;8.99;100.00
51287;BME280;37364;46.974;18.916;2023-05-09T05:38:06;152657.81;;;9.17;100.00
51287;BME280;37364;46.974;18.916;2023-05-09T05:40:37;152757.44;;;9.56;100.00
51287;BME280;37364;46.974;18.916;2023-05-09T05:43:07;152770.38;;;9.61;100.00
51287;BME280;37364;46.974;18.916;2023-05-09T05:45:38;152802.75;;;9.74;100.00
51287;BME280;37364;46.974;18.916;2023-05-09T05:48:14;152815.66;;;9.79;100.00
51287;BME280;37364;46.974;18.916;2023-05-09T05:50:51;152761.31;;;9.58;100.00
51287;BME280;37364;46.974;18.916;2023-05-09T05:53:25;152708.25;;;9.37;100.00
51287;BME280;37364;46.974;18.916;2023-05-09T05:55:57;152853.22;;;9.94;100.00
51287;BME280;37364;46.974;18.916;2023-05-09T05:58:30;152863.56;;;9.98;100.00
51287;BME280;37364;46.974;18.916;2023-05-09T06:01:01;152827.28;;;9.84;100.00
51287;BME280;37364;46.974;18.916;2023-05-09T06:03:31;152879.09;;;10.04;100.00
51287;BME280;37364;46.974;18.916;2023-05-09T06:06:07;152951.63;;;10.33;100.00
51287;BME280;37364;46.974;18.916;2023-05-09T06:08:37;153015.03;;;10.58;100.00
51287;BME280;37364;46.974;18.916;2023-05-09T06:11:07;153055.22;;;10.74;100.00
51287;BME280;37364;46.974;18.916;2023-05-09T06:13:38;153025.44;;;10.62;100.00
51287;BME280;37364;46.974;18.916;2023-05-09T06:16:10;153056.50;;;10.75;100.00
51287;BME280;37364;46.974;18.916;2023-05-09T06:18:49;153100.53;;;10.92;100.00
51287;BME280;37364;46.974;18.916;2023-05-09T06:21:24;153092.72;;;10.89;100.00
51287;BME280;37364;46.974;18.916;2023-05-09T06:23:55;153143.22;;;11.09;100.00
51287;BME280;37364;46.974;18.916;2023-05-09T06:26:38;153106.97;;;10.95;100.00
51287;BME280;37364;46.974;18.916;2023-05-09T06:29:08;153151.03;;;11.12;100.00
51287;BME280;37364;46.974;18.916;2023-05-09T06:31:40;153164.00;;;11.17;100.00
51287;BME280;37364;46.974;18.916;2023-05-09T06:34:10;153210.59;;;11.36;100.00
51287;BME280;37364;46.974;18.916;2023-05-09T06:36:43;153166.56;;;11.18;100.00
51287;BME280;37364;46.974;18.916;2023-05-09T06:39:13;153289.63;;;11.67;100.00
51287;BME280;37364;46.974;18.916;2023-05-09T06:41:43;153363.56;;;11.96;99.49
51287;BME280;37364;46.974;18.916;2023-05-09T06:44:22;153319.44;;;11.79;96.33
51287;BME280;37364;46.974;18.916;2023-05-09T06:46:53;153349.28;;;11.91;96.51
51287;BME280;37364;46.974;18.916;2023-05-09T06:49:23;153250.75;;;11.52;96.50
51287;BME280;37364;46.974;18.916;2023-05-09T06:51:56;153377.81;;;12.02;96.99
51287;BME280;37364;46.974;18.916;2023-05-09T06:54:26;153424.47;;;12.20;95.23
51287;BME280;37364;46.974;18.916;2023-05-09T06:56:57;153460.72;;;12.35;97.19
51287;BME280;37364;46.974;18.916;2023-05-09T06:59:27;153530.78;;;12.62;95.47
51287;BME280;37364;46.974;18.916;2023-05-09T07:01:57;153581.34;;;12.82;91.37
51287;BME280;37364;46.974;18.916;2023-05-09T07:04:28;153570.97;;;12.78;91.26
51287;BME280;37364;46.974;18.916;2023-05-09T07:07:00;153499.63;;;12.50;90.62
51287;BME280;37364;46.974;18.916;2023-05-09T07:09:31;153550.25;;;12.70;94.09
51287;BME280;37364;46.974;18.916;2023-05-09T07:12:01;153624.09;;;12.99;90.85
51287;BME280;37364;46.974;18.916;2023-05-09T07:14:31;153717.56;;;13.36;89.51
51287;BME280;37364;46.974;18.916;2023-05-09T07:17:01;153583.91;;;12.83;90.46
51287;BME280;37364;46.974;18.916;2023-05-09T07:19:49;153730.53;;;13.41;90.58
51287;BME280;37364;46.974;18.916;2023-05-09T07:22:22;153735.75;;;13.43;87.75
51287;BME280;37364;46.974;18.916;2023-05-09T07:24:56;153631.91;;;13.02;88.70
51287;BME280;37364;46.974;18.916;2023-05-09T07:27:26;153756.47;;;13.52;89.77
51287;BME280;37364;46.974;18.916;2023-05-09T07:29:56;153744.81;;;13.47;87.02
51287;BME280;37364;46.974;18.916;2023-05-09T07:32:27;153857.72;;;13.92;90.35
51287;BME280;37364;46.974;18.916;2023-05-09T07:34:57;153853.81;;;13.90;88.14
51287;BME280;37364;46.974;18.916;2023-05-09T07:37:30;153923.91;;;14.18;84.53
51287;BME280;37364;46.974;18.916;2023-05-09T07:40:01;153886.22;;;14.03;84.90
51287;BME280;37364;46.974;18.916;2023-05-09T07:42:32;153969.31;;;14.36;87.42
51287;BME280;37364;46.974;18.916;2023-05-09T07:45:03;154086.22;;;14.82;82.27
51287;BME280;37364;46.974;18.916;2023-05-09T07:47:33;153949.84;;;14.28;83.42
51287;BME280;37364;46.974;18.916;2023-05-09T07:50:04;154013.47;;;14.53;83.55
51287;BME280;37364;46.974;18.916;2023-05-09T07:52:37;154040.75;;;14.64;83.47
51287;BME280;37364;46.974;18.916;2023-05-09T07:55:08;154105.72;;;14.90;82.70
51287;BME280;37364;46.974;18.916;2023-05-09T07:57:39;154212.19;;;15.32;79.81
51287;BME280;37364;46.974;18.916;2023-05-09T08:00:10;154078.41;;;14.79;81.98
51287;BME280;37364;46.974;18.916;2023-05-09T08:02:41;153973.22;;;14.37;82.28
51287;BME280;37364;46.974;18.916;2023-05-09T08:05:11;154047.28;;;14.67;81.71
51287;BME280;37364;46.974;18.916;2023-05-09T08:07:45;154016.03;;;14.54;80.82
51287;BME280;37364;46.974;18.916;2023-05-09T08:10:15;154069.31;;;14.75;81.38
51287;BME280;37364;46.974;18.916;2023-05-09T08:12:47;154140.78;;;15.03;79.93
51287;BME280;37364;46.974;18.916;2023-05-09T08:15:20;154035.56;;;14.62;78.82
51287;BME280;37364;46.974;18.916;2023-05-09T08:17:51;154104.38;;;14.89;81.17
51287;BME280;37364;46.974;18.916;2023-05-09T08:20:21;154107.00;;;14.90;79.08
51287;BME280;37364;46.974;18.916;2023-05-09T08:22:54;154205.72;;;15.29;78.90
51287;BME280;37364;46.974;18.916;2023-05-09T08:25:24;154151.16;;;15.08;77.68
51287;BME280;37364;46.974;18.916;2023-05-09T08:27:55;154214.81;;;15.33;78.72
51287;BME280;37364;46.974;18.916;2023-05-09T08:30:26;154212.19;;;15.32;77.61
51287;BME280;37364;46.974;18.916;2023-05-09T08:32:56;154229.06;;;15.38;77.88
51287;BME280;37364;46.974;18.916;2023-05-09T08:35:27;154283.63;;;15.60;75.98
51287;BME280;37364;46.974;18.916;2023-05-09T08:37:59;154333.03;;;15.79;79.48
51287;BME280;37364;46.974;18.916;2023-05-09T08:40:30;154247.25;;;15.46;75.07
51287;BME280;37364;46.974;18.916;2023-05-09T08:43:05;154242.06;;;15.43;77.11
51287;BME280;37364;46.974;18.916;2023-05-09T08:45:38;154225.19;;;15.37;77.35
51287;BME280;37364;46.974;18.916;2023-05-09T08:48:12;154422.69;;;16.15;73.94
51287;BME280;37364;46.974;18.916;2023-05-09T08:50:43;154383.75;;;15.99;75.58
51287;BME280;37364;46.974;18.916;2023-05-09T08:53:16;154338.25;;;15.81;76.53
51287;BME280;37364;46.974;18.916;2023-05-09T08:55:46;154424.03;;;16.15;77.91
51287;BME280;37364;46.974;18.916;2023-05-09T08:58:17;154453.94;;;16.27;73.46
51287;BME280;37364;46.974;18.916;2023-05-09T09:00:49;154468.25;;;16.33;72.71
51287;BME280;37364;46.974;18.916;2023-05-09T09:03:19;154525.41;;;16.55;70.93
51287;BME280;37364;46.974;18.916;2023-05-09T09:05:50;154499.41;;;16.45;69.38
51287;BME280;37364;46.974;18.916;2023-05-09T09:08:25;154496.78;;;16.44;66.72
51287;BME280;37364;46.974;18.916;2023-05-09T09:10:56;154481.22;;;16.38;68.09
51287;BME280;37364;46.974;18.916;2023-05-09T09:13:27;154577.44;;;16.76;66.84
51287;BME280;37364;46.974;18.916;2023-05-09T09:15:58;154733.50;;;17.37;66.39
51287;BME280;37364;46.974;18.916;2023-05-09T09:18:32;154775.13;;;17.54;66.38
51287;BME280;37364;46.974;18.916;2023-05-09T09:21:06;154806.38;;;17.66;66.01
51287;BME280;37364;46.974;18.916;2023-05-09T09:23:42;154798.53;;;17.63;65.13
51287;BME280;37364;46.974;18.916;2023-05-09T09:26:13;154743.91;;;17.42;64.20
51287;BME280;37364;46.974;18.916;2023-05-09T09:28:44;154662.00;;;17.09;63.96
51287;BME280;37364;46.974;18.916;2023-05-09T09:31:22;154792.06;;;17.61;65.29
51287;BME280;37364;46.974;18.916;2023-05-09T09:33:58;154734.81;;;17.38;64.10
51287;BME280;37364;46.974;18.916;2023-05-09T09:36:29;154790.72;;;17.60;63.42
51287;BME280;37364;46.974;18.916;2023-05-09T09:39:04;154645.06;;;17.03;63.67
51287;BME280;37364;46.974;18.916;2023-05-09T09:41:36;154641.16;;;17.01;63.03
51287;BME280;37364;46.974;18.916;2023-05-09T09:44:07;154700.97;;;17.25;62.19
51287;BME280;37364;46.974;18.916;2023-05-09T09:46:41;154725.69;;;17.34;61.62
51287;BME280;37364;46.974;18.916;2023-05-09T09:49:14;154807.66;;;17.67;63.69
51287;BME280;37364;46.974;18.916;2023-05-09T09:51:44;154769.91;;;17.52;60.97
51287;BME280;37364;46.974;18.916;2023-05-09T09:54:21;154881.88;;;17.96;61.09
51287;BME280;37364;46.974;18.916;2023-05-09T09:56:52;154881.88;;;17.96;63.39
51287;BME280;37364;46.974;18.916;2023-05-09T09:59:24;154914.38;;;18.09;63.24
51287;BME280;37364;46.974;18.916;2023-05-09T10:01:59;154987.28;;;18.37;61.53
51287;BME280;37364;46.974;18.916;2023-05-09T10:04:34;154919.59;;;18.11;57.29
51287;BME280;37364;46.974;18.916;2023-05-09T10:07:06;155054.97;;;18.64;56.59
51287;BME280;37364;46.974;18.916;2023-05-09T10:09:43;154975.56;;;18.33;58.30
51287;BME280;37364;46.974;18.916;2023-05-09T10:12:16;155040.66;;;18.58;56.28
51287;BME280;37364;46.974;18.916;2023-05-09T10:14:49;154961.25;;;18.27;58.59
51287;BME280;37364;46.974;18.916;2023-05-09T10:17:20;155015.91;;;18.49;60.21
51287;BME280;37364;46.974;18.916;2023-05-09T10:19:54;155009.38;;;18.46;60.51
51287;BME280;37364;46.974;18.916;2023-05-09T10:22:24;155199.53;;;19.21;59.09
51287;BME280;37364;46.974;18.916;2023-05-09T10:25:01;155105.78;;;18.84;57.38
51287;BME280;37364;46.974;18.916;2023-05-09T10:27:37;155180.00;;;19.13;58.92
51287;BME280;37364;46.974;18.916;2023-05-09T10:30:15;155280.28;;;19.53;57.69
51287;BME280;37364;46.974;18.916;2023-05-09T10:32:59;155280.28;;;19.53;58.34
51287;BME280;37364;46.974;18.916;2023-05-09T10:35:42;155350.66;;;19.81;57.20
51287;BME280;37364;46.974;18.916;2023-05-09T10:38:16;155320.63;;;19.69;54.99
51287;BME280;37364;46.974;18.916;2023-05-09T10:40:52;155169.59;;;19.09;56.66
51287;BME280;37364;46.974;18.916;2023-05-09T10:43:23;155129.22;;;18.93;56.98
51287;BME280;37364;46.974;18.916;2023-05-09T10:45:54;155116.19;;;18.88;56.22
51287;BME280;37364;46.974;18.916;2023-05-09T10:48:29;155239.91;;;19.37;58.19
51287;BME280;37364;46.974;18.916;2023-05-09T10:51:03;155100.59;;;18.82;54.18
51287;BME280;37364;46.974;18.916;2023-05-09T10:53:43;155023.69;;;18.52;55.17
51287;BME280;37364;46.974;18.916;2023-05-09T10:56:29;155265.94;;;19.47;56.41
51287;BME280;37364;46.974;18.916;2023-05-09T10:59:32;155245.09;;;19.39;55.36
51287;BME280;37364;46.974;18.916;2023-05-09T11:02:04;155229.50;;;19.33;49.67
51287;BME280;37364;46.974;18.916;2023-05-09T11:04:38;155351.94;;;19.81;49.54
51287;BME280;37364;46.974;18.916;2023-05-09T11:07:23;155417.06;;;20.07;51.99
51287;BME280;37364;46.974;18.916;2023-05-09T11:10:06;155546.09;;;20.58;51.40
51287;BME280;37364;46.974;18.916;2023-05-09T11:12:58;155377.97;;;19.91;54.13
51287;BME280;37364;46.974;18.916;2023-05-09T11:15:30;155291.97;;;19.58;52.88
51287;BME280;37364;46.974;18.916;2023-05-09T11:18:06;155086.22;;;18.76;56.00
51287;BME280;37364;46.974;18.916;2023-05-09T11:20:42;155220.38;;;19.29;54.79
51287;BME280;37364;46.974;18.916;2023-05-09T11:23:14;155182.59;;;19.14;53.80
51287;BME280;37364;46.974;18.916;2023-05-09T11:25:46;155058.84;;;18.66;54.40
51287;BME280;37364;46.974;18.916;2023-05-09T11:28:28;155340.22;;;19.77;54.03
51287;BME280;37364;46.974;18.916;2023-05-09T11:31:09;155368.91;;;19.88;50.86
51287;BME280;37364;46.974;18.916;2023-05-09T11:33:41;155448.38;;;20.19;52.20
51287;BME280;37364;46.974;18.916;2023-05-09T11:36:17;155081.00;;;18.74;55.11
51287;BME280;37364;46.974;18.916;2023-05-09T11:39:03;155004.19;;;18.44;55.31
51287;BME280;37364;46.974;18.916;2023-05-09T11:41:42;155318.00;;;19.68;55.06
51287;BME280;37364;46.974;18.916;2023-05-09T11:44:17;155208.63;;;19.25;58.32
51287;BME280;37364;46.974;18.916;2023-05-09T11:46:48;154901.41;;;18.04;57.54
51287;BME280;37364;46.974;18.916;2023-05-09T11:49:18;154824.56;;;17.73;59.53
51287;BME280;37364;46.974;18.916;2023-05-09T11:51:48;155103.16;;;18.83;59.87
51287;BME280;37364;46.974;18.916;2023-05-09T11:54:22;155281.56;;;19.53;57.36
51287;BME280;37364;46.974;18.916;2023-05-09T11:56:52;155418.41;;;20.07;58.39
51287;BME280;37364;46.974;18.916;2023-05-09T11:59:26;155129.22;;;18.93;56.95
51287;BME280;37364;46.974;18.916;2023-05-09T12:02:01;154989.91;;;18.38;59.02
51287;BME280;37364;46.974;18.916;2023-05-09T12:04:34;155030.25;;;18.54;59.71
51287;BME280;37364;46.974;18.916;2023-05-09T12:07:05;155219.06;;;19.29;60.67
51287;BME280;37364;46.974;18.916;2023-05-09T12:09:36;155181.28;;;19.14;60.92
51287;BME280;37364;46.974;18.916;2023-05-09T12:12:10;155259.44;;;19.45;60.96
51287;BME280;37364;46.974;18.916;2023-05-09T12:14:43;155239.91;;;19.37;61.58
51287;BME280;37364;46.974;18.916;2023-05-09T12:17:14;155045.84;;;18.61;61.72
51287;BME280;37364;46.974;18.916;2023-05-09T12:19:44;154939.09;;;18.18;63.77
51287;BME280;37364;46.974;18.916;2023-05-09T12:22:15;154966.47;;;18.29;67.74
51287;BME280;37364;46.974;18.916;2023-05-09T12:24:49;155006.81;;;18.45;71.12
51287;BME280;37364;46.974;18.916;2023-05-09T12:27:20;155021.13;;;18.51;70.64
51287;BME280;37364;46.974;18.916;2023-05-09T12:29:55;154962.53;;;18.28;73.96
51287;BME280;37364;46.974;18.916;2023-05-09T12:32:25;155071.88;;;18.71;67.24
51287;BME280;37364;46.974;18.916;2023-05-09T12:34:58;155056.25;;;18.65;65.61
51287;BME280;37364;46.974;18.916;2023-05-09T12:37:30;155006.81;;;18.45;65.80
51287;BME280;37364;46.974;18.916;2023-05-09T12:40:03;155044.50;;;18.60;67.58
51287;BME280;37364;46.974;18.916;2023-05-09T12:42:34;155002.88;;;18.44;67.76
51287;BME280;37364;46.974;18.916;2023-05-09T12:45:10;154894.84;;;18.01;69.79
51287;BME280;37364;46.974;18.916;2023-05-09T12:47:42;155064.06;;;18.68;67.07
51287;BME280;37364;46.974;18.916;2023-05-09T12:50:12;155131.81;;;18.94;64.72
51287;BME280;37364;46.974;18.916;2023-05-09T12:52:42;155342.81;;;19.78;68.56
51287;BME280;37364;46.974;18.916;2023-05-09T12:55:28;155260.72;;;19.45;63.94
51287;BME280;37364;46.974;18.916;2023-05-09T12:58:00;155297.19;;;19.60;62.74
51287;BME280;37364;46.974;18.916;2023-05-09T13:00:43;155405.38;;;20.02;68.21
51287;BME280;37364;46.974;18.916;2023-05-09T13:03:21;155400.16;;;20.00;65.78
51287;BME280;37364;46.974;18.916;2023-05-09T13:05:56;155140.94;;;18.98;67.47
51287;BME280;37364;46.974;18.916;2023-05-09T13:08:29;155277.66;;;19.52;69.88
51287;BME280;37364;46.974;18.916;2023-05-09T13:11:02;155393.66;;;19.98;69.67